Terminal Aerodrome Forecast
Issued by NWS Upton, NY

Home | Current Version | Previous Version | Text Only | Print | Product List | Glossary On
Versions: 1 2 3 4 5 6 7 8 9 10 11 12 13 14 15 16 17 18 19 20 21 22 23 24 25 26 27 28 29 30
597
FTUS41 KOKX 270822 AAB
TAFBDR
TAF AMD
KBDR 270822Z 2708/2806 07011KT 2SM BR OVC004
     FM271000 07009KT 1SM -DZ BR OVC004
     FM271200 07008KT 1SM -RA BR OVC004
     FM271700 VRB05KT 2SM BR OVC006
     FM271900 02006KT 5SM BR OVC100
     FM272100 VRB04KT 6SM BR BKN015
     FM280300 19005KT 4SM BR OVC015=

USA.gov is the U.S. government's official web portal to all federal, state and local government web resources and services.